Main page
METAR-TAF:

METAR-TAF

Airports :

Sabadell, Spain

Sabadell Airport

latitude: 41-31N, longitude: 002-06E, elevation: 250 m

Current weather observation

The report was made 25 minutes ago, at 03:30 UTC
Calm wind
Temperature 15°C
Humidity 82%
Pressure 1021 hPa
Visibility 10 km or more

METAR: LELL 200330Z AUTO 00000KT 9999 NCD 15/12 Q1021

Time: 05:55 (03:55 UTC)

Forecast

The report was made 1 hour and 55 minutes ago, at 02:00 UTC
Forecast valid from 20 at 03 UTC to 21 at 03 UTC
Wind 3 kt from variable directions
Visibility 10 km or more
Scattered clouds at a height of 2000 ft
Temporary
from 20 at 03 UTC to 20 at 15 UTC
Broken clouds at a height of 1400 ft
Becoming
from 20 at 10 UTC to 20 at 12 UTC
Wind 8 kt from the Southeast
Becoming
from 20 at 18 UTC to 20 at 20 UTC
Wind 3 kt from variable directions

TAF: LELL 200200Z 2003/2103 VRB03KT 9999 SCT020 TX22/2012Z TN13/2006Z TEMPO 2003/2015 BKN014 BECMG 2010/2012 14008KT BECMG 2018/2020 VRB03KT

Weather observations and forecasts of more than 4000 airports (METAR and TAF reports).

The available stations are represented by yellow and red dots on the map.

Hover mouse over dot to see the name of the station.

Then click to see weather observations and forecasts.

To change the map : click on the green buttons with a black cross to zoom in, on the green button with a dash to zoom out, or on the green arrows for adjacent maps.


METAR-TAF: